createdAt,value
2018-03-29T00:02:17.345Z,99618
2018-03-29T00:04:44.578Z,99626
2018-03-29T00:07:11.861Z,99641
2018-03-29T00:09:38.826Z,99638
2018-03-29T00:12:12.440Z,99648
2018-03-29T00:14:39.528Z,99646
2018-03-29T00:17:06.870Z,99645
2018-03-29T00:19:34.075Z,99639
2018-03-29T00:22:02.262Z,99622
2018-03-29T00:24:29.501Z,99622
2018-03-29T00:26:56.678Z,99638
2018-03-29T00:29:23.966Z,99646
2018-03-29T00:31:52.433Z,99634
2018-03-29T00:34:19.711Z,99636
2018-03-29T00:36:46.910Z,99639
2018-03-29T00:39:14.209Z,99631
2018-03-29T00:41:41.368Z,99638
2018-03-29T00:44:08.693Z,99644
2018-03-29T00:46:36.414Z,99630
2018-03-29T00:49:03.710Z,99623
2018-03-29T00:51:30.905Z,99620
2018-03-29T00:53:57.968Z,99627
2018-03-29T00:56:25.152Z,99615
2018-03-29T00:58:52.353Z,99613
2018-03-29T01:01:19.421Z,99615
2018-03-29T01:03:50.457Z,99611
2018-03-29T01:06:17.613Z,99607
2018-03-29T01:08:44.862Z,99614
2018-03-29T01:11:12.054Z,99618
2018-03-29T01:13:40.512Z,99608
2018-03-29T01:16:07.725Z,99589
2018-03-29T01:18:34.957Z,99577
2018-03-29T01:21:02.128Z,99568
2018-03-29T01:23:32.641Z,99560
2018-03-29T01:25:59.784Z,99540
2018-03-29T01:28:26.982Z,99516
2018-03-29T01:30:54.118Z,99500
2018-03-29T01:33:22.497Z,99489
2018-03-29T01:35:49.753Z,99484
2018-03-29T01:38:16.965Z,99494
2018-03-29T01:40:44.035Z,99496
2018-03-29T01:43:12.498Z,99493
2018-03-29T01:45:39.669Z,99499
2018-03-29T01:48:06.799Z,99497
2018-03-29T01:50:33.967Z,99484
2018-03-29T01:53:04.932Z,99475
2018-03-29T01:55:32.190Z,99486
2018-03-29T01:57:59.399Z,99491
2018-03-29T02:00:26.593Z,99503
2018-03-29T02:02:58.385Z,99495
2018-03-29T02:05:25.669Z,99486
2018-03-29T02:07:52.926Z,99490
2018-03-29T02:10:20.158Z,99491
2018-03-29T02:12:51.326Z,99489
2018-03-29T02:15:18.553Z,99496
2018-03-29T02:17:45.743Z,99500
2018-03-29T02:20:13.202Z,99515
2018-03-29T02:22:43.741Z,99521
2018-03-29T02:25:11.037Z,99516
2018-03-29T02:27:38.251Z,99527
2018-03-29T02:30:05.388Z,99521
2018-03-29T02:32:32.657Z,99521
2018-03-29T02:34:59.987Z,99520
2018-03-29T02:37:27.049Z,99510
2018-03-29T02:39:54.332Z,99506
2018-03-29T02:42:22.913Z,99509
2018-03-29T02:44:50.134Z,99513
2018-03-29T02:47:17.254Z,99510
2018-03-29T02:49:44.517Z,99508
2018-03-29T02:52:12.862Z,99504
2018-03-29T02:54:40.131Z,99495
2018-03-29T02:57:07.440Z,99500
2018-03-29T02:59:34.556Z,99501
2018-03-29T03:02:01.832Z,99502
2018-03-29T03:04:29.076Z,99495
2018-03-29T03:06:56.258Z,99495
2018-03-29T03:09:24.252Z,99501
2018-03-29T03:11:54.539Z,99511
2018-03-29T03:14:21.885Z,99523
2018-03-29T03:16:49.209Z,99526
2018-03-29T03:19:16.485Z,99531
2018-03-29T03:21:46.665Z,99535
2018-03-29T03:24:13.779Z,99543
2018-03-29T03:26:40.980Z,99537
2018-03-29T03:29:08.284Z,99533
2018-03-29T03:31:35.706Z,99526
2018-03-29T03:34:02.846Z,99527
2018-03-29T03:36:30.079Z,99530
2018-03-29T03:38:57.322Z,99531
2018-03-29T03:41:25.750Z,99528
2018-03-29T03:43:52.936Z,99532
2018-03-29T03:46:20.213Z,99522
2018-03-29T03:48:47.486Z,99521
2018-03-29T03:51:15.776Z,99515
2018-03-29T03:53:42.956Z,99513
2018-03-29T03:56:10.157Z,99514
2018-03-29T03:58:37.295Z,99509
2018-03-29T04:01:04.493Z,99497
2018-03-29T04:03:31.790Z,99500
2018-03-29T04:05:59.108Z,99491
2018-03-29T04:08:26.310Z,99485
2018-03-29T04:10:53.539Z,99489
2018-03-29T04:13:22.986Z,99495
2018-03-29T04:15:50.157Z,99504
2018-03-29T04:18:17.453Z,99512
2018-03-29T04:20:44.570Z,99514
2018-03-29T04:23:12.779Z,99524
2018-03-29T04:25:40.093Z,99522
2018-03-29T04:28:07.301Z,99515
2018-03-29T04:30:35.160Z,99517
2018-03-29T04:33:02.511Z,99527
2018-03-29T04:35:29.670Z,99532
2018-03-29T04:37:56.933Z,99532
2018-03-29T04:40:24.145Z,99535
2018-03-29T04:42:52.549Z,99549
2018-03-29T04:45:19.770Z,99564
2018-03-29T04:47:47.594Z,99566
2018-03-29T04:50:14.758Z,99563
2018-03-29T04:52:42.034Z,99570
2018-03-29T04:55:09.262Z,99575
2018-03-29T04:57:36.508Z,99580
2018-03-29T05:00:03.601Z,99590
2018-03-29T05:02:30.758Z,99595
2018-03-29T05:04:58.243Z,99594
2018-03-29T05:07:25.601Z,99592
2018-03-29T05:09:52.773Z,99592
2018-03-29T05:12:20.158Z,99594
2018-03-29T05:14:47.373Z,99603
2018-03-29T05:17:15.489Z,99608
2018-03-29T05:19:43.285Z,99611
2018-03-29T05:22:13.821Z,99607
2018-03-29T05:24:41.072Z,99616
2018-03-29T05:27:14.514Z,99623
2018-03-29T05:29:41.779Z,99619
2018-03-29T05:32:13.592Z,99607
2018-03-29T05:34:40.897Z,99600
2018-03-29T05:39:57.822Z,99607
2018-03-29T05:42:28.847Z,99606
2018-03-29T05:44:56.029Z,99611
2018-03-29T05:47:23.970Z,99618
2018-03-29T05:49:51.269Z,99621
2018-03-29T05:52:19.527Z,99628
2018-03-29T05:54:48.178Z,99629
2018-03-29T05:57:16.050Z,99627
2018-03-29T05:59:43.542Z,99634
2018-03-29T06:02:11.723Z,99636
2018-03-29T06:04:38.938Z,99642
2018-03-29T06:07:05.905Z,99644
2018-03-29T06:09:33.110Z,99652
2018-03-29T06:12:01.394Z,99649
2018-03-29T06:14:35.166Z,99654
2018-03-29T06:17:02.486Z,99653
2018-03-29T06:19:29.597Z,99642
2018-03-29T06:21:56.923Z,99648
2018-03-29T06:24:24.186Z,99658
2018-03-29T06:26:51.378Z,99660
2018-03-29T06:29:18.593Z,99666
2018-03-29T06:31:49.575Z,99668
2018-03-29T06:34:17.538Z,99671
2018-03-29T06:36:44.702Z,99680
2018-03-29T06:39:12.046Z,99699
2018-03-29T06:41:43.746Z,99708
2018-03-29T06:44:11.426Z,99712
2018-03-29T06:46:39.575Z,99725
2018-03-29T06:49:06.858Z,99727
2018-03-29T06:51:34.364Z,99733
2018-03-29T06:54:01.605Z,99733
2018-03-29T06:56:28.774Z,99726
2018-03-29T06:58:55.986Z,99733
2018-03-29T07:01:26.087Z,99740
2018-03-29T07:03:53.330Z,99738
2018-03-29T07:06:20.644Z,99734
2018-03-29T07:08:47.800Z,99728
2018-03-29T07:11:19.312Z,99724
2018-03-29T07:13:46.471Z,99717
2018-03-29T07:16:13.763Z,99727
2018-03-29T07:18:40.894Z,99734
2018-03-29T07:21:13.967Z,99733
2018-03-29T07:23:41.302Z,99731
2018-03-29T07:26:08.589Z,99732
2018-03-29T07:28:35.779Z,99718
2018-03-29T07:31:03.117Z,99716
2018-03-29T07:33:30.375Z,99715
2018-03-29T07:35:57.585Z,99716
2018-03-29T07:38:24.777Z,99719
2018-03-29T07:40:54.973Z,99713
2018-03-29T07:43:22.160Z,99712
2018-03-29T07:45:50.178Z,99711
2018-03-29T07:48:18.153Z,99708
2018-03-29T07:50:48.946Z,99712
2018-03-29T07:53:16.251Z,99714
2018-03-29T07:55:43.241Z,99713
2018-03-29T07:58:10.427Z,99714
2018-03-29T08:00:41.066Z,99707
2018-03-29T08:03:08.244Z,99716
2018-03-29T08:05:35.348Z,99717
2018-03-29T08:08:02.541Z,99724
2018-03-29T08:10:33.982Z,99734
2018-03-29T08:13:01.267Z,99736
2018-03-29T08:15:28.946Z,99732
2018-03-29T08:17:56.106Z,99736
2018-03-29T08:20:24.486Z,99732
2018-03-29T08:22:51.665Z,99741
2018-03-29T08:25:18.806Z,99736
2018-03-29T08:27:46.066Z,99733
2018-03-29T08:30:13.386Z,99732
2018-03-29T08:32:41.882Z,99727
2018-03-29T08:35:09.085Z,99720
2018-03-29T08:37:36.199Z,99718
2018-03-29T08:40:03.610Z,99713
2018-03-29T08:42:32.411Z,99717
2018-03-29T08:44:59.665Z,99718
2018-03-29T08:47:26.997Z,99723
2018-03-29T08:49:54.296Z,99719
2018-03-29T08:52:23.029Z,99725
2018-03-29T08:54:50.350Z,99715
2018-03-29T08:57:18.154Z,99723
2018-03-29T08:59:45.495Z,99723
2018-03-29T09:02:19.369Z,99733
2018-03-29T09:04:47.229Z,99734
2018-03-29T09:07:14.533Z,99731
2018-03-29T09:09:41.852Z,99747
2018-03-29T09:12:10.162Z,99749
2018-03-29T09:14:37.333Z,99748
2018-03-29T09:17:04.549Z,99754
2018-03-29T09:19:31.709Z,99761
2018-03-29T09:22:02.029Z,99767
2018-03-29T09:24:29.234Z,99755
2018-03-29T09:26:56.932Z,99764
2018-03-29T09:29:24.689Z,99768
2018-03-29T09:31:57.969Z,99769
2018-03-29T09:34:25.283Z,99770
2018-03-29T09:36:52.417Z,99767
2018-03-29T09:39:19.718Z,99774
2018-03-29T09:41:50.185Z,99772
2018-03-29T09:44:17.466Z,99772
2018-03-29T09:46:44.694Z,99770
2018-03-29T09:49:12.469Z,99768
2018-03-29T09:51:43.541Z,99754
2018-03-29T09:54:10.825Z,99766
2018-03-29T09:56:37.870Z,99752
2018-03-29T09:59:05.087Z,99752
2018-03-29T10:01:35.498Z,99757
2018-03-29T10:04:08.701Z,99762
2018-03-29T10:06:41.087Z,99767
2018-03-29T10:09:08.215Z,99768
2018-03-29T10:11:41.553Z,99774
2018-03-29T10:14:08.976Z,99775
2018-03-29T10:16:36.102Z,99778
2018-03-29T10:19:03.303Z,99771
2018-03-29T10:21:34.063Z,99766
2018-03-29T10:24:01.158Z,99772
2018-03-29T10:26:28.343Z,99765
2018-03-29T10:28:55.682Z,99759
2018-03-29T10:31:23.081Z,99767
2018-03-29T10:33:50.217Z,99778
2018-03-29T10:36:17.319Z,99778
2018-03-29T10:38:44.593Z,99770
2018-03-29T10:41:12.889Z,99769
2018-03-29T10:43:40.104Z,99774
2018-03-29T10:46:07.914Z,99776
2018-03-29T10:48:35.190Z,99778
2018-03-29T10:51:06.989Z,99775
2018-03-29T10:53:34.173Z,99781
2018-03-29T10:56:01.309Z,99793
2018-03-29T10:58:29.088Z,99783
2018-03-29T11:00:57.341Z,99786
2018-03-29T11:03:24.660Z,99798
2018-03-29T11:05:52.257Z,99789
2018-03-29T11:08:20.157Z,99790
2018-03-29T11:10:50.362Z,99790
2018-03-29T11:13:17.561Z,99786
2018-03-29T11:15:44.724Z,99804
2018-03-29T11:18:11.942Z,99787
2018-03-29T11:20:42.446Z,99782
2018-03-29T11:23:09.633Z,99780
2018-03-29T11:25:37.274Z,99783
2018-03-29T11:28:04.425Z,99779
2018-03-29T11:30:43.425Z,99782
2018-03-29T11:33:10.672Z,99785
2018-03-29T11:35:37.874Z,99781
2018-03-29T11:38:05.058Z,99775
2018-03-29T11:40:45.033Z,99776
2018-03-29T11:43:12.082Z,99768
2018-03-29T11:45:39.314Z,99775
2018-03-29T11:48:06.530Z,99770
2018-03-29T11:50:33.668Z,99760
2018-03-29T11:53:00.743Z,99751
2018-03-29T11:55:28.012Z,99747
2018-03-29T11:57:55.274Z,99757
2018-03-29T12:00:22.474Z,99752
2018-03-29T12:02:49.765Z,99761
2018-03-29T12:05:16.973Z,99753
2018-03-29T12:07:44.362Z,99753
2018-03-29T12:10:15.030Z,99750
2018-03-29T12:12:42.501Z,99749
2018-03-29T12:15:09.704Z,99760
2018-03-29T12:17:37.248Z,99765
2018-03-29T12:20:10.054Z,99757
2018-03-29T12:22:37.381Z,99755
2018-03-29T12:25:04.585Z,99753
2018-03-29T12:27:32.129Z,99765
2018-03-29T12:30:16.823Z,99760
2018-03-29T12:32:43.886Z,99759
2018-03-29T12:35:11.106Z,99760
2018-03-29T12:37:38.345Z,99760
2018-03-29T12:40:22.192Z,99763
2018-03-29T12:42:49.510Z,99764
2018-03-29T12:45:17.550Z,99766
2018-03-29T12:47:44.733Z,99750
2018-03-29T12:50:16.185Z,99755
2018-03-29T12:52:43.425Z,99748
2018-03-29T12:55:28.368Z,99750
2018-03-29T12:58:10.019Z,99764
2018-03-29T13:00:44.151Z,99758
2018-03-29T13:03:11.375Z,99757
2018-03-29T13:05:38.690Z,99757
2018-03-29T13:08:05.946Z,99746
2018-03-29T13:10:40.435Z,99753
2018-03-29T13:13:07.578Z,99749
2018-03-29T13:15:35.162Z,99749
2018-03-29T13:18:02.332Z,99757
2018-03-29T13:20:33.098Z,99755
2018-03-29T13:23:01.484Z,99757
2018-03-29T13:25:28.653Z,99761
2018-03-29T13:27:55.862Z,99761
2018-03-29T13:30:36.251Z,99771
2018-03-29T13:33:03.566Z,99769
2018-03-29T13:35:30.715Z,99768
2018-03-29T13:37:58.223Z,99778
2018-03-29T13:40:28.881Z,99772
2018-03-29T13:42:56.062Z,99772
2018-03-29T13:45:23.320Z,99772
2018-03-29T13:47:50.978Z,99773
2018-03-29T13:50:42.191Z,99768
2018-03-29T13:53:09.470Z,99773
2018-03-29T13:55:36.560Z,99773
2018-03-29T13:58:03.754Z,99776
2018-03-29T14:00:30.954Z,99775
2018-03-29T14:02:58.124Z,99795
2018-03-29T14:05:25.493Z,99815
2018-03-29T14:07:52.766Z,99806
2018-03-29T14:10:32.058Z,99812
2018-03-29T14:12:59.595Z,99811
2018-03-29T14:15:26.854Z,99817
2018-03-29T14:17:54.229Z,99810
2018-03-29T14:20:24.556Z,99815
2018-03-29T14:22:51.712Z,99813
2018-03-29T14:25:18.937Z,99822
2018-03-29T14:27:46.256Z,99830
2018-03-29T14:30:17.197Z,99849
2018-03-29T14:32:44.550Z,99854
2018-03-29T14:35:11.840Z,99863
2018-03-29T14:37:39.024Z,99868
2018-03-29T14:40:10.515Z,99868
2018-03-29T14:42:37.545Z,99857
2018-03-29T14:45:04.726Z,99835
2018-03-29T14:47:32.050Z,99874
2018-03-29T14:50:23.134Z,99881
2018-03-29T14:52:50.389Z,99877
2018-03-29T14:55:18.381Z,99866
2018-03-29T14:57:46.433Z,99885
2018-03-29T15:00:18.138Z,99894
2018-03-29T15:02:45.947Z,99881
2018-03-29T15:05:13.009Z,99896
2018-03-29T15:07:41.118Z,99893
2018-03-29T15:10:14.455Z,99899
2018-03-29T15:12:41.607Z,99907
2018-03-29T15:15:08.926Z,99913
2018-03-29T15:17:36.282Z,99901
2018-03-29T15:20:11.682Z,99904
2018-03-29T15:22:38.949Z,99908
2018-03-29T15:25:06.127Z,99911
2018-03-29T15:27:33.319Z,99913
2018-03-29T15:30:00.720Z,99907
2018-03-29T15:32:27.808Z,99915
2018-03-29T15:34:56.588Z,99903
2018-03-29T15:37:23.974Z,99908
2018-03-29T15:39:57.719Z,99906
2018-03-29T15:42:25.011Z,99911
2018-03-29T15:44:52.169Z,99927
2018-03-29T15:47:19.426Z,99927
2018-03-29T15:49:50.474Z,99936
2018-03-29T15:52:17.839Z,99941
2018-03-29T15:54:45.068Z,99943
2018-03-29T15:57:12.276Z,99958
2018-03-29T15:59:45.626Z,99951
2018-03-29T16:02:12.963Z,99963
2018-03-29T16:04:40.246Z,99972
2018-03-29T16:07:08.457Z,99981
2018-03-29T16:09:39.274Z,99984
2018-03-29T16:12:07.260Z,99984
2018-03-29T16:14:34.541Z,99987
2018-03-29T16:17:01.642Z,99990
2018-03-29T16:19:32.279Z,99995
2018-03-29T16:21:59.529Z,100007
2018-03-29T16:24:26.805Z,100010
2018-03-29T16:26:54.599Z,100018
2018-03-29T16:29:25.429Z,100021
2018-03-29T16:31:52.602Z,100029
2018-03-29T16:34:20.574Z,100035
2018-03-29T16:36:48.659Z,100037
2018-03-29T16:39:15.843Z,100048
2018-03-29T16:41:42.956Z,100053
2018-03-29T16:44:10.809Z,100052
2018-03-29T16:46:38.126Z,100053
2018-03-29T16:49:05.380Z,100056
2018-03-29T16:51:32.545Z,100068
2018-03-29T16:53:59.825Z,100073
2018-03-29T16:56:27.173Z,100069
2018-03-29T16:58:54.243Z,100067
2018-03-29T17:01:22.339Z,100070
2018-03-29T17:03:49.540Z,100068
2018-03-29T17:06:16.795Z,100078
2018-03-29T17:08:45.119Z,100080
2018-03-29T17:11:15.730Z,100083
2018-03-29T17:13:43.041Z,100076
2018-03-29T17:16:11.945Z,100084
2018-03-29T17:18:39.139Z,100096
2018-03-29T17:21:07.520Z,100105
2018-03-29T17:23:34.890Z,100099
2018-03-29T17:26:01.954Z,100099
2018-03-29T17:28:29.241Z,100099
2018-03-29T17:30:56.518Z,100106
2018-03-29T17:33:24.021Z,100109
2018-03-29T17:35:51.288Z,100118
2018-03-29T17:38:18.704Z,100133
2018-03-29T17:40:49.615Z,100141
2018-03-29T17:43:17.011Z,100133
2018-03-29T17:45:45.100Z,100138
2018-03-29T17:48:12.408Z,100143
2018-03-29T17:50:44.160Z,100146
2018-03-29T17:53:13.858Z,100129
2018-03-29T17:55:42.700Z,100127
2018-03-29T17:58:09.903Z,100130
2018-03-29T18:00:38.264Z,100133
2018-03-29T18:03:05.540Z,100139
2018-03-29T18:05:32.575Z,100132
2018-03-29T18:07:59.751Z,100136
2018-03-29T18:10:30.138Z,100138
2018-03-29T18:12:58.207Z,100153
2018-03-29T18:15:25.451Z,100148
2018-03-29T18:17:54.649Z,100146
2018-03-29T18:20:26.093Z,100140
2018-03-29T18:22:54.615Z,100149
2018-03-29T18:25:22.878Z,100149
2018-03-29T18:27:50.177Z,100152
2018-03-29T18:30:21.035Z,100161
2018-03-29T18:32:48.149Z,100170
2018-03-29T18:35:16.690Z,100186
2018-03-29T18:37:44.659Z,100187
2018-03-29T18:40:16.223Z,100184
2018-03-29T18:42:43.353Z,100173
2018-03-29T18:45:10.659Z,100179
2018-03-29T18:47:37.885Z,100165
2018-03-29T18:50:11.220Z,100161
2018-03-29T18:52:38.380Z,100161
2018-03-29T18:55:06.060Z,100165
2018-03-29T18:57:33.336Z,100171
2018-03-29T19:00:01.691Z,100166
2018-03-29T19:02:29.019Z,100160
2018-03-29T19:04:56.228Z,100161
2018-03-29T19:07:23.530Z,100153
2018-03-29T19:09:51.453Z,100154
2018-03-29T19:12:18.767Z,100154
2018-03-29T19:14:46.054Z,100159
2018-03-29T19:17:13.148Z,100150
2018-03-29T19:19:43.503Z,100139
2018-03-29T19:22:11.732Z,100149
2018-03-29T19:24:39.549Z,100143
2018-03-29T19:27:06.814Z,100148
2018-03-29T19:29:35.972Z,100148
2018-03-29T19:32:03.175Z,100158
2018-03-29T19:34:31.233Z,100171
2018-03-29T19:36:58.948Z,100171
2018-03-29T19:39:26.383Z,100165
2018-03-29T19:44:46.295Z,100158
2018-03-29T19:47:13.647Z,100162
2018-03-29T19:49:44.106Z,100165
2018-03-29T19:52:11.919Z,100170
2018-03-29T19:54:39.307Z,100175
2018-03-29T19:57:06.665Z,100172
2018-03-29T19:59:37.634Z,100168
2018-03-29T20:02:04.914Z,100176
2018-03-29T20:04:32.210Z,100177
2018-03-29T20:07:00.250Z,100167
2018-03-29T20:09:33.501Z,100170
2018-03-29T20:12:00.782Z,100174
2018-03-29T20:14:27.924Z,100175
2018-03-29T20:16:55.143Z,100181
2018-03-29T20:19:23.651Z,100188
2018-03-29T20:21:50.969Z,100182
2018-03-29T20:24:19.145Z,100171
2018-03-29T20:26:46.502Z,100166
2018-03-29T20:29:13.886Z,100169
2018-03-29T20:31:41.150Z,100174
2018-03-29T20:34:08.447Z,100173
2018-03-29T20:36:35.697Z,100177
2018-03-29T20:39:07.141Z,100177
2018-03-29T20:41:34.347Z,100181
2018-03-29T20:44:01.586Z,100184
2018-03-29T20:46:28.898Z,100188
2018-03-29T20:49:00.864Z,100189
2018-03-29T20:51:28.128Z,100200
2018-03-29T20:53:55.454Z,100206
2018-03-29T20:56:22.832Z,100202
2018-03-29T20:58:54.834Z,100195
2018-03-29T21:01:22.138Z,100206
2018-03-29T21:03:49.506Z,100206
2018-03-29T21:06:16.601Z,100210
2018-03-29T21:08:44.932Z,100210
2018-03-29T21:11:12.175Z,100201
2018-03-29T21:13:39.389Z,100205
2018-03-29T21:16:06.706Z,100203
2018-03-29T21:18:33.935Z,100205
2018-03-29T21:21:01.093Z,100209
2018-03-29T21:23:28.374Z,100216
2018-03-29T21:25:55.524Z,100219
2018-03-29T21:28:22.833Z,100224
2018-03-29T21:30:50.060Z,100223
2018-03-29T21:33:17.255Z,100226
2018-03-29T21:35:45.384Z,100226
2018-03-29T21:38:12.589Z,100233
2018-03-29T21:40:39.925Z,100231
2018-03-29T21:43:07.280Z,100238
2018-03-29T21:45:35.053Z,100234
2018-03-29T21:48:02.414Z,100235
2018-03-29T21:50:33.474Z,100234
2018-03-29T21:53:00.808Z,100238
2018-03-29T21:55:28.002Z,100241
2018-03-29T21:57:55.448Z,100250
2018-03-29T22:00:22.534Z,100250
2018-03-29T22:02:49.999Z,100247
2018-03-29T22:05:17.112Z,100245
2018-03-29T22:07:44.313Z,100253
2018-03-29T22:10:12.566Z,100249
2018-03-29T22:12:39.821Z,100247
2018-03-29T22:15:06.762Z,100243
2018-03-29T22:17:34.038Z,100243
2018-03-29T22:20:02.449Z,100238
2018-03-29T22:22:29.639Z,100241
2018-03-29T22:24:56.861Z,100244
2018-03-29T22:27:24.130Z,100245
2018-03-29T22:29:51.216Z,100238
2018-03-29T22:32:18.524Z,100237
2018-03-29T22:34:45.716Z,100234
2018-03-29T22:37:13.113Z,100230
2018-03-29T22:39:41.449Z,100234
2018-03-29T22:42:08.688Z,100242
2018-03-29T22:44:36.030Z,100238
2018-03-29T22:47:03.265Z,100239
2018-03-29T22:49:41.269Z,100227
2018-03-29T22:52:08.304Z,100224
2018-03-29T22:54:35.426Z,100227
2018-03-29T22:57:02.738Z,100228
2018-03-29T22:59:31.093Z,100227
2018-03-29T23:01:58.342Z,100226
2018-03-29T23:04:25.561Z,100224
2018-03-29T23:06:52.842Z,100227
2018-03-29T23:09:20.301Z,100219
2018-03-29T23:11:47.465Z,100217
2018-03-29T23:14:14.569Z,100214
2018-03-29T23:16:41.877Z,100209
2018-03-29T23:19:10.476Z,100209
2018-03-29T23:21:43.593Z,100209
2018-03-29T23:24:10.624Z,100200
2018-03-29T23:26:37.667Z,100202
2018-03-29T23:29:04.969Z,100193
2018-03-29T23:31:32.128Z,100187
2018-03-29T23:33:59.333Z,100191
2018-03-29T23:36:26.501Z,100187
2018-03-29T23:38:53.751Z,100188
2018-03-29T23:41:20.949Z,100183
2018-03-29T23:43:48.921Z,100189
2018-03-29T23:46:16.821Z,100189
2018-03-29T23:48:45.361Z,100191
2018-03-29T23:51:12.543Z,100193
2018-03-29T23:53:39.705Z,100201
2018-03-29T23:56:06.985Z,100205
2018-03-29T23:58:36.098Z,100208
